sensor_id;sensor_type;location;lat;lon;timestamp;pressure;altitude;pressure_sealevel;temperature;humidity
74675;BME280;63200;48.810;12.352;2023-08-01T00:00:08;96668.72;;;17.13;100.00
74675;BME280;63200;48.810;12.352;2023-08-01T00:02:33;96667.91;;;17.13;100.00
74675;BME280;63200;48.810;12.352;2023-08-01T00:04:59;96665.50;;;17.11;100.00
74675;BME280;63200;48.810;12.352;2023-08-01T00:07:27;96670.56;;;17.09;100.00
74675;BME280;63200;48.810;12.352;2023-08-01T00:09:53;96673.53;;;17.04;100.00
74675;BME280;63200;48.810;12.352;2023-08-01T00:12:18;96668.41;;;17.03;100.00
74675;BME280;63200;48.810;12.352;2023-08-01T00:14:43;96652.19;;;16.97;100.00
74675;BME280;63200;48.810;12.352;2023-08-01T00:17:09;96654.81;;;16.94;100.00
74675;BME280;63200;48.810;12.352;2023-08-01T00:19:34;96630.16;;;16.94;100.00
74675;BME280;63200;48.810;12.352;2023-08-01T00:21:59;96622.28;;;16.92;100.00
74675;BME280;63200;48.810;12.352;2023-08-01T00:24:24;96625.38;;;16.91;100.00
74675;BME280;63200;48.810;12.352;2023-08-01T00:26:50;96604.44;;;16.86;100.00
74675;BME280;63200;48.810;12.352;2023-08-01T00:29:15;96608.31;;;16.85;100.00
74675;BME280;63200;48.810;12.352;2023-08-01T00:31:40;96610.63;;;16.83;100.00
74675;BME280;63200;48.810;12.352;2023-08-01T00:34:06;96604.06;;;16.88;100.00
74675;BME280;63200;48.810;12.352;2023-08-01T00:36:31;96591.28;;;16.92;100.00
74675;BME280;63200;48.810;12.352;2023-08-01T00:38:57;96548.94;;;16.77;100.00
74675;BME280;63200;48.810;12.352;2023-08-01T00:41:23;96569.13;;;16.97;100.00
74675;BME280;63200;48.810;12.352;2023-08-01T00:43:48;96570.72;;;16.98;100.00
74675;BME280;63200;48.810;12.352;2023-08-01T00:46:13;96567.63;;;16.99;100.00
74675;BME280;63200;48.810;12.352;2023-08-01T00:48:39;96553.91;;;16.99;100.00
74675;BME280;63200;48.810;12.352;2023-08-01T00:51:06;96555.06;;;16.98;100.00
74675;BME280;63200;48.810;12.352;2023-08-01T00:53:32;96558.63;;;16.99;100.00
74675;BME280;63200;48.810;12.352;2023-08-01T00:55:58;96544.91;;;16.99;100.00
74675;BME280;63200;48.810;12.352;2023-08-01T00:58:25;96524.81;;;16.82;100.00
74675;BME280;63200;48.810;12.352;2023-08-01T01:00:50;96552.56;;;16.93;100.00
74675;BME280;63200;48.810;12.352;2023-08-01T01:03:16;96538.78;;;16.90;100.00
74675;BME280;63200;48.810;12.352;2023-08-01T01:06:06;96542.88;;;16.83;100.00
74675;BME280;63200;48.810;12.352;2023-08-01T01:08:33;96534.91;;;16.78;100.00
74675;BME280;63200;48.810;12.352;2023-08-01T01:10:59;96531.25;;;16.74;100.00
74675;BME280;63200;48.810;12.352;2023-08-01T01:13:24;96534.78;;;16.75;100.00
74675;BME280;63200;48.810;12.352;2023-08-01T01:15:49;96530.13;;;16.75;100.00
74675;BME280;63200;48.810;12.352;2023-08-01T01:18:15;96531.16;;;16.71;100.00
74675;BME280;63200;48.810;12.352;2023-08-01T01:20:40;96527.38;;;16.75;100.00
74675;BME280;63200;48.810;12.352;2023-08-01T01:23:06;96529.78;;;16.77;100.00
74675;BME280;63200;48.810;12.352;2023-08-01T01:25:33;96527.13;;;16.80;100.00
74675;BME280;63200;48.810;12.352;2023-08-01T01:28:03;96529.88;;;16.80;100.00
74675;BME280;63200;48.810;12.352;2023-08-01T01:30:29;96523.03;;;16.74;100.00
74675;BME280;63200;48.810;12.352;2023-08-01T01:32:55;96523.03;;;16.74;100.00
74675;BME280;63200;48.810;12.352;2023-08-01T01:35:20;96511.28;;;16.74;100.00
74675;BME280;63200;48.810;12.352;2023-08-01T01:37:45;96516.78;;;16.74;100.00
74675;BME280;63200;48.810;12.352;2023-08-01T01:40:11;96504.22;;;16.73;100.00
74675;BME280;63200;48.810;12.352;2023-08-01T01:42:37;96509.34;;;16.74;100.00
74675;BME280;63200;48.810;12.352;2023-08-01T01:45:02;96479.50;;;16.57;100.00
74675;BME280;63200;48.810;12.352;2023-08-01T01:47:28;96498.25;;;16.71;100.00
74675;BME280;63200;48.810;12.352;2023-08-01T01:49:53;96485.72;;;16.70;100.00
74675;BME280;63200;48.810;12.352;2023-08-01T01:52:18;96485.97;;;16.64;100.00
74675;BME280;63200;48.810;12.352;2023-08-01T01:54:44;96481.19;;;16.61;100.00
74675;BME280;63200;48.810;12.352;2023-08-01T01:57:09;96477.66;;;16.61;100.00
74675;BME280;63200;48.810;12.352;2023-08-01T01:59:34;96459.19;;;16.45;100.00
74675;BME280;63200;48.810;12.352;2023-08-01T02:02:00;96475.25;;;16.59;100.00
74675;BME280;63200;48.810;12.352;2023-08-01T02:04:25;96468.66;;;16.60;100.00
74675;BME280;63200;48.810;12.352;2023-08-01T02:06:50;96453.72;;;16.45;100.00
74675;BME280;63200;48.810;12.352;2023-08-01T02:09:18;96484.28;;;16.60;100.00
74675;BME280;63200;48.810;12.352;2023-08-01T02:11:43;96476.03;;;16.60;100.00
74675;BME280;63200;48.810;12.352;2023-08-01T02:14:09;96442.59;;;16.26;100.00
74675;BME280;63200;48.810;12.352;2023-08-01T02:16:34;96472.53;;;16.47;100.00
74675;BME280;63200;48.810;12.352;2023-08-01T02:18:59;96470.28;;;16.49;100.00
74675;BME280;63200;48.810;12.352;2023-08-01T02:21:25;96484.75;;;16.49;100.00
74675;BME280;63200;48.810;12.352;2023-08-01T02:27:11;96452.22;;;16.60;100.00
74675;BME280;63200;48.810;12.352;2023-08-01T02:29:36;96463.16;;;16.60;100.00
74675;BME280;63200;48.810;12.352;2023-08-01T02:32:02;96462.25;;;16.56;100.00
74675;BME280;63200;48.810;12.352;2023-08-01T02:34:27;96468.53;;;16.57;100.00
74675;BME280;63200;48.810;12.352;2023-08-01T02:36:53;96458.00;;;16.59;100.00
74675;BME280;63200;48.810;12.352;2023-08-01T02:39:18;96452.44;;;16.55;100.00
74675;BME280;63200;48.810;12.352;2023-08-01T02:41:43;96443.78;;;16.53;100.00
74675;BME280;63200;48.810;12.352;2023-08-01T02:44:09;96435.56;;;16.53;100.00
74675;BME280;63200;48.810;12.352;2023-08-01T02:46:34;96439.06;;;16.54;100.00
74675;BME280;63200;48.810;12.352;2023-08-01T02:48:59;96439.53;;;16.56;100.00
74675;BME280;63200;48.810;12.352;2023-08-01T02:51:25;96427.34;;;16.53;100.00
74675;BME280;63200;48.810;12.352;2023-08-01T02:53:50;96429.72;;;16.55;100.00
74675;BME280;63200;48.810;12.352;2023-08-01T02:56:15;96435.19;;;16.55;100.00
74675;BME280;63200;48.810;12.352;2023-08-01T02:58:41;96426.53;;;16.53;100.00
74675;BME280;63200;48.810;12.352;2023-08-01T03:01:08;96423.44;;;16.54;100.00
74675;BME280;63200;48.810;12.352;2023-08-01T03:03:35;96417.88;;;16.51;100.00
74675;BME280;63200;48.810;12.352;2023-08-01T03:06:02;96420.25;;;16.52;100.00
74675;BME280;63200;48.810;12.352;2023-08-01T03:08:27;96414.78;;;16.52;100.00
74675;BME280;63200;48.810;12.352;2023-08-01T03:10:53;96412.13;;;16.56;100.00
74675;BME280;63200;48.810;12.352;2023-08-01T03:13:19;96410.66;;;16.58;100.00
74675;BME280;63200;48.810;12.352;2023-08-01T03:15:44;96411.44;;;16.59;100.00
74675;BME280;63200;48.810;12.352;2023-08-01T03:18:09;96401.28;;;16.59;100.00
74675;BME280;63200;48.810;12.352;2023-08-01T03:20:34;96393.84;;;16.60;100.00
74675;BME280;63200;48.810;12.352;2023-08-01T03:23:00;96393.94;;;16.63;100.00
74675;BME280;63200;48.810;12.352;2023-08-01T03:25:25;96392.25;;;16.59;100.00
74675;BME280;63200;48.810;12.352;2023-08-01T03:27:51;96387.47;;;16.56;100.00
74675;BME280;63200;48.810;12.352;2023-08-01T03:30:16;96381.66;;;16.57;100.00
74675;BME280;63200;48.810;12.352;2023-08-01T03:32:41;96391.00;;;16.56;100.00
74675;BME280;63200;48.810;12.352;2023-08-01T03:35:07;96383.16;;;16.55;100.00
74675;BME280;63200;48.810;12.352;2023-08-01T03:37:32;96384.75;;;16.56;100.00
74675;BME280;63200;48.810;12.352;2023-08-01T03:39:57;96382.25;;;16.51;100.00
74675;BME280;63200;48.810;12.352;2023-08-01T03:42:23;96387.47;;;16.56;100.00
74675;BME280;63200;48.810;12.352;2023-08-01T03:44:48;96388.63;;;16.55;100.00
74675;BME280;63200;48.810;12.352;2023-08-01T03:47:14;96388.19;;;16.53;100.00
74675;BME280;63200;48.810;12.352;2023-08-01T03:49:39;96398.34;;;16.52;100.00
74675;BME280;63200;48.810;12.352;2023-08-01T03:52:05;96397.09;;;16.49;100.00
74675;BME280;63200;48.810;12.352;2023-08-01T03:54:31;96401.44;;;16.51;100.00
74675;BME280;63200;48.810;12.352;2023-08-01T03:56:56;96405.22;;;16.46;100.00
74675;BME280;63200;48.810;12.352;2023-08-01T03:59:22;96413.00;;;16.44;100.00
74675;BME280;63200;48.810;12.352;2023-08-01T04:01:47;96402.81;;;16.44;100.00
74675;BME280;63200;48.810;12.352;2023-08-01T04:04:13;96414.84;;;16.40;100.00
74675;BME280;63200;48.810;12.352;2023-08-01T04:06:38;96422.34;;;16.43;100.00
74675;BME280;63200;48.810;12.352;2023-08-01T04:09:03;96433.66;;;16.41;100.00
74675;BME280;63200;48.810;12.352;2023-08-01T04:11:28;96435.16;;;16.39;100.00
74675;BME280;63200;48.810;12.352;2023-08-01T04:13:55;96446.69;;;16.32;100.00
74675;BME280;63200;48.810;12.352;2023-08-01T04:16:21;96440.09;;;16.33;100.00
74675;BME280;63200;48.810;12.352;2023-08-01T04:18:47;96446.00;;;16.35;100.00
74675;BME280;63200;48.810;12.352;2023-08-01T04:21:14;96454.66;;;16.37;100.00
74675;BME280;63200;48.810;12.352;2023-08-01T04:23:40;96401.56;;;16.13;100.00
74675;BME280;63200;48.810;12.352;2023-08-01T04:26:05;96446.81;;;16.36;100.00
74675;BME280;63200;48.810;12.352;2023-08-01T04:28:32;96453.00;;;16.32;100.00
74675;BME280;63200;48.810;12.352;2023-08-01T04:30:57;96452.19;;;16.32;100.00
74675;BME280;63200;48.810;12.352;2023-08-01T04:33:22;96450.72;;;16.22;100.00
74675;BME280;63200;48.810;12.352;2023-08-01T04:35:48;96447.88;;;16.19;100.00
74675;BME280;63200;48.810;12.352;2023-08-01T04:38:14;96441.84;;;16.13;100.00
74675;BME280;63200;48.810;12.352;2023-08-01T04:40:40;96445.38;;;16.13;100.00
74675;BME280;63200;48.810;12.352;2023-08-01T04:43:05;96444.25;;;16.14;100.00
74675;BME280;63200;48.810;12.352;2023-08-01T04:45:31;96434.91;;;16.03;100.00
74675;BME280;63200;48.810;12.352;2023-08-01T04:47:56;96431.81;;;16.05;100.00
74675;BME280;63200;48.810;12.352;2023-08-01T04:50:21;96429.22;;;15.96;100.00
74675;BME280;63200;48.810;12.352;2023-08-01T04:52:47;96413.91;;;16.07;100.00
74675;BME280;63200;48.810;12.352;2023-08-01T04:55:12;96414.03;;;16.11;100.00
74675;BME280;63200;48.810;12.352;2023-08-01T04:57:37;96404.25;;;15.97;100.00
74675;BME280;63200;48.810;12.352;2023-08-01T05:00:04;96354.22;;;15.72;100.00
74675;BME280;63200;48.810;12.352;2023-08-01T05:02:29;96404.19;;;16.10;100.00
74675;BME280;63200;48.810;12.352;2023-08-01T05:04:54;96389.97;;;16.04;100.00
74675;BME280;63200;48.810;12.352;2023-08-01T05:07:20;96355.38;;;15.84;100.00
74675;BME280;63200;48.810;12.352;2023-08-01T05:09:45;96383.47;;;16.09;100.00
74675;BME280;63200;48.810;12.352;2023-08-01T05:12:10;96377.88;;;16.05;100.00
74675;BME280;63200;48.810;12.352;2023-08-01T05:14:36;96366.13;;;16.05;100.00
74675;BME280;63200;48.810;12.352;2023-08-01T05:17:01;96329.00;;;15.79;100.00
74675;BME280;63200;48.810;12.352;2023-08-01T05:19:26;96366.88;;;15.89;100.00
74675;BME280;63200;48.810;12.352;2023-08-01T05:21:52;96373.72;;;15.83;100.00
74675;BME280;63200;48.810;12.352;2023-08-01T05:24:17;96360.03;;;15.83;100.00
74675;BME280;63200;48.810;12.352;2023-08-01T05:26:42;96357.16;;;15.79;100.00
74675;BME280;63200;48.810;12.352;2023-08-01T05:29:08;96352.72;;;15.87;100.00
74675;BME280;63200;48.810;12.352;2023-08-01T05:31:33;96349.31;;;15.78;100.00
74675;BME280;63200;48.810;12.352;2023-08-01T05:33:58;96353.53;;;15.75;100.00
74675;BME280;63200;48.810;12.352;2023-08-01T05:36:24;96352.50;;;15.80;100.00
74675;BME280;63200;48.810;12.352;2023-08-01T05:38:49;96354.00;;;15.77;100.00
74675;BME280;63200;48.810;12.352;2023-08-01T05:41:14;96351.47;;;15.85;100.00
74675;BME280;63200;48.810;12.352;2023-08-01T05:43:40;96351.59;;;15.88;100.00
74675;BME280;63200;48.810;12.352;2023-08-01T05:46:05;96348.50;;;15.90;100.00
74675;BME280;63200;48.810;12.352;2023-08-01T05:48:30;96355.81;;;15.86;100.00
74675;BME280;63200;48.810;12.352;2023-08-01T05:50:56;96350.09;;;15.91;100.00
74675;BME280;63200;48.810;12.352;2023-08-01T05:53:21;96346.66;;;15.94;100.00
74675;BME280;63200;48.810;12.352;2023-08-01T05:55:47;96337.91;;;15.88;100.00
74675;BME280;63200;48.810;12.352;2023-08-01T05:58:13;96342.91;;;15.98;100.00
74675;BME280;63200;48.810;12.352;2023-08-01T06:00:38;96344.13;;;16.01;100.00
74675;BME280;63200;48.810;12.352;2023-08-01T06:03:03;96344.94;;;16.02;100.00
74675;BME280;63200;48.810;12.352;2023-08-01T06:05:30;96337.53;;;16.02;100.00
74675;BME280;63200;48.810;12.352;2023-08-01T06:07:55;96337.38;;;16.11;100.00
74675;BME280;63200;48.810;12.352;2023-08-01T06:10:21;96337.72;;;16.09;100.00
74675;BME280;63200;48.810;12.352;2023-08-01T06:12:46;96326.25;;;16.20;100.00
74675;BME280;63200;48.810;12.352;2023-08-01T06:15:12;96331.56;;;16.28;100.00
74675;BME280;63200;48.810;12.352;2023-08-01T06:17:37;96290.47;;;16.12;100.00
74675;BME280;63200;48.810;12.352;2023-08-01T06:20:03;96331.34;;;16.49;100.00
74675;BME280;63200;48.810;12.352;2023-08-01T06:22:30;96327.91;;;16.53;100.00
74675;BME280;63200;48.810;12.352;2023-08-01T06:24:55;96308.22;;;16.63;100.00
74675;BME280;63200;48.810;12.352;2023-08-01T06:27:20;96307.16;;;16.68;100.00
74675;BME280;63200;48.810;12.352;2023-08-01T06:29:45;96306.53;;;16.74;100.00
74675;BME280;63200;48.810;12.352;2023-08-01T06:32:11;96254.72;;;16.37;100.00
74675;BME280;63200;48.810;12.352;2023-08-01T06:34:36;96302.91;;;16.70;100.00
74675;BME280;63200;48.810;12.352;2023-08-01T06:37:02;96303.06;;;16.77;100.00
74675;BME280;63200;48.810;12.352;2023-08-01T06:39:29;96290.34;;;16.85;100.00
74675;BME280;63200;48.810;12.352;2023-08-01T06:41:54;96290.94;;;16.91;100.00
74675;BME280;63200;48.810;12.352;2023-08-01T06:44:19;96292.50;;;16.92;100.00
74675;BME280;63200;48.810;12.352;2023-08-01T06:46:45;96299.22;;;16.94;100.00
74675;BME280;63200;48.810;12.352;2023-08-01T06:49:10;96285.97;;;16.96;100.00
74675;BME280;63200;48.810;12.352;2023-08-01T06:51:35;96270.75;;;16.99;100.00
74675;BME280;63200;48.810;12.352;2023-08-01T06:54:00;96276.31;;;17.03;100.00
74675;BME280;63200;48.810;12.352;2023-08-01T06:56:26;96316.38;;;17.07;100.00
74675;BME280;63200;48.810;12.352;2023-08-01T06:58:51;96307.88;;;17.12;100.00
74675;BME280;63200;48.810;12.352;2023-08-01T07:01:17;96297.78;;;17.17;100.00
74675;BME280;63200;48.810;12.352;2023-08-01T07:03:42;96294.69;;;17.18;100.00
74675;BME280;63200;48.810;12.352;2023-08-01T07:06:07;96293.63;;;17.23;100.00
74675;BME280;63200;48.810;12.352;2023-08-01T07:08:32;96299.09;;;17.23;100.00
74675;BME280;63200;48.810;12.352;2023-08-01T07:10:58;96308.19;;;17.27;100.00
74675;BME280;63200;48.810;12.352;2023-08-01T07:13:25;96274.50;;;17.10;100.00
74675;BME280;63200;48.810;12.352;2023-08-01T07:15:50;96265.06;;;17.08;100.00
74675;BME280;63200;48.810;12.352;2023-08-01T07:18:16;96298.63;;;17.37;100.00
74675;BME280;63200;48.810;12.352;2023-08-01T07:20:41;96289.59;;;17.36;100.00
74675;BME280;63200;48.810;12.352;2023-08-01T07:23:07;96297.91;;;17.40;100.00
74675;BME280;63200;48.810;12.352;2023-08-01T07:25:32;96300.31;;;17.41;100.00
74675;BME280;63200;48.810;12.352;2023-08-01T07:27:57;96309.69;;;17.40;100.00
74675;BME280;63200;48.810;12.352;2023-08-01T07:30:23;96292.25;;;17.32;100.00
74675;BME280;63200;48.810;12.352;2023-08-01T07:32:48;96297.00;;;17.52;100.00
74675;BME280;63200;48.810;12.352;2023-08-01T07:35:14;96300.97;;;17.74;100.00
74675;BME280;63200;48.810;12.352;2023-08-01T07:37:39;96297.69;;;18.04;100.00
74675;BME280;63200;48.810;12.352;2023-08-01T07:40:05;96269.28;;;18.15;100.00
74675;BME280;63200;48.810;12.352;2023-08-01T07:42:31;96283.66;;;18.52;100.00
74675;BME280;63200;48.810;12.352;2023-08-01T07:44:56;96293.06;;;18.74;100.00
74675;BME280;63200;48.810;12.352;2023-08-01T07:47:22;96298.75;;;18.85;100.00
74675;BME280;63200;48.810;12.352;2023-08-01T07:49:49;96303.22;;;18.93;100.00
74675;BME280;63200;48.810;12.352;2023-08-01T07:52:14;96295.13;;;19.04;100.00
74675;BME280;63200;48.810;12.352;2023-08-01T07:54:39;96298.38;;;19.09;100.00
74675;BME280;63200;48.810;12.352;2023-08-01T07:57:05;96304.03;;;19.20;100.00
74675;BME280;63200;48.810;12.352;2023-08-01T07:59:30;96302.59;;;19.30;100.00
74675;BME280;63200;48.810;12.352;2023-08-01T08:01:56;96305.25;;;19.50;100.00
74675;BME280;63200;48.810;12.352;2023-08-01T08:04:21;96292.47;;;19.64;100.00
74675;BME280;63200;48.810;12.352;2023-08-01T08:06:46;96294.25;;;19.80;100.00
74675;BME280;63200;48.810;12.352;2023-08-01T08:09:12;96309.19;;;20.09;100.00
74675;BME280;63200;48.810;12.352;2023-08-01T08:11:37;96299.84;;;20.18;100.00
74675;BME280;63200;48.810;12.352;2023-08-01T08:14:03;96291.66;;;19.91;100.00
74675;BME280;63200;48.810;12.352;2023-08-01T08:16:29;96298.75;;;19.92;100.00
74675;BME280;63200;48.810;12.352;2023-08-01T08:18:54;96289.53;;;19.80;100.00
74675;BME280;63200;48.810;12.352;2023-08-01T08:21:20;96295.06;;;19.80;100.00
74675;BME280;63200;48.810;12.352;2023-08-01T08:23:45;96293.16;;;19.85;100.00
74675;BME280;63200;48.810;12.352;2023-08-01T08:26:10;96298.41;;;19.97;100.00
74675;BME280;63200;48.810;12.352;2023-08-01T08:28:36;96281.56;;;20.02;100.00
74675;BME280;63200;48.810;12.352;2023-08-01T08:31:02;96310.84;;;19.84;100.00
74675;BME280;63200;48.810;12.352;2023-08-01T08:33:28;96325.72;;;19.52;100.00
74675;BME280;63200;48.810;12.352;2023-08-01T08:35:54;96325.63;;;19.45;100.00
74675;BME280;63200;48.810;12.352;2023-08-01T08:38:20;96328.78;;;19.47;100.00
74675;BME280;63200;48.810;12.352;2023-08-01T08:43:35;96321.88;;;19.57;100.00
74675;BME280;63200;48.810;12.352;2023-08-01T08:46:04;96318.06;;;19.65;100.00
74675;BME280;63200;48.810;12.352;2023-08-01T08:48:30;96300.44;;;19.43;100.00
74675;BME280;63200;48.810;12.352;2023-08-01T08:51:00;96336.25;;;19.73;100.00
74675;BME280;63200;48.810;12.352;2023-08-01T08:53:26;96304.16;;;19.54;100.00
74675;BME280;63200;48.810;12.352;2023-08-01T08:55:52;96325.66;;;19.75;100.00
74675;BME280;63200;48.810;12.352;2023-08-01T08:58:18;96331.94;;;19.76;100.00
74675;BME280;63200;48.810;12.352;2023-08-01T09:00:44;96325.50;;;19.64;100.00
74675;BME280;63200;48.810;12.352;2023-08-01T09:03:09;96321.44;;;19.81;100.00
74675;BME280;63200;48.810;12.352;2023-08-01T09:05:42;96323.13;;;19.90;100.00
74675;BME280;63200;48.810;12.352;2023-08-01T09:08:16;96323.03;;;19.83;100.00
74675;BME280;63200;48.810;12.352;2023-08-01T09:10:43;96301.38;;;19.54;100.00
74675;BME280;63200;48.810;12.352;2023-08-01T09:13:08;96327.38;;;19.57;100.00
74675;BME280;63200;48.810;12.352;2023-08-01T09:15:35;96325.53;;;19.38;100.00
74675;BME280;63200;48.810;12.352;2023-08-01T09:18:06;96323.28;;;19.47;100.00
74675;BME280;63200;48.810;12.352;2023-08-01T09:20:46;96322.59;;;19.54;100.00
74675;BME280;63200;48.810;12.352;2023-08-01T09:23:13;96311.59;;;19.54;100.00
74675;BME280;63200;48.810;12.352;2023-08-01T09:25:39;96331.34;;;19.59;100.00
74675;BME280;63200;48.810;12.352;2023-08-01T09:28:20;96317.94;;;19.31;100.00
74675;BME280;63200;48.810;12.352;2023-08-01T09:30:51;96330.13;;;19.30;100.00
74675;BME280;63200;48.810;12.352;2023-08-01T09:33:18;96327.47;;;19.10;100.00
74675;BME280;63200;48.810;12.352;2023-08-01T09:35:44;96330.22;;;19.10;100.00
74675;BME280;63200;48.810;12.352;2023-08-01T09:38:12;96329.72;;;19.05;100.00
74675;BME280;63200;48.810;12.352;2023-08-01T09:40:41;96326.03;;;18.93;100.00
74675;BME280;63200;48.810;12.352;2023-08-01T09:43:07;96314.91;;;18.67;100.00
74675;BME280;63200;48.810;12.352;2023-08-01T09:45:32;96343.59;;;18.65;100.00
74675;BME280;63200;48.810;12.352;2023-08-01T09:47:59;96287.47;;;18.24;100.00
74675;BME280;63200;48.810;12.352;2023-08-01T09:50:25;96329.44;;;18.44;100.00
74675;BME280;63200;48.810;12.352;2023-08-01T09:52:51;96335.00;;;18.47;100.00
74675;BME280;63200;48.810;12.352;2023-08-01T09:55:39;96346.50;;;18.34;100.00
74675;BME280;63200;48.810;12.352;2023-08-01T09:58:07;96341.63;;;18.23;100.00
74675;BME280;63200;48.810;12.352;2023-08-01T10:00:33;96350.28;;;18.25;100.00
74675;BME280;63200;48.810;12.352;2023-08-01T10:02:59;96356.88;;;18.01;100.00
74675;BME280;63200;48.810;12.352;2023-08-01T10:05:28;96337.78;;;17.89;100.00
74675;BME280;63200;48.810;12.352;2023-08-01T10:07:55;96362.47;;;17.89;100.00
74675;BME280;63200;48.810;12.352;2023-08-01T10:10:23;96342.88;;;17.71;100.00
74675;BME280;63200;48.810;12.352;2023-08-01T10:12:50;96365.88;;;17.82;100.00
74675;BME280;63200;48.810;12.352;2023-08-01T10:15:17;96342.28;;;17.61;100.00
74675;BME280;63200;48.810;12.352;2023-08-01T10:17:42;96361.53;;;17.45;100.00
74675;BME280;63200;48.810;12.352;2023-08-01T10:20:11;96337.16;;;17.08;100.00
74675;BME280;63200;48.810;12.352;2023-08-01T10:22:37;96347.91;;;16.69;100.00
74675;BME280;63200;48.810;12.352;2023-08-01T10:25:04;96349.13;;;16.56;100.00
74675;BME280;63200;48.810;12.352;2023-08-01T10:27:30;96348.59;;;16.22;100.00
74675;BME280;63200;48.810;12.352;2023-08-01T10:30:00;96337.47;;;16.14;100.00
74675;BME280;63200;48.810;12.352;2023-08-01T10:32:37;96331.34;;;16.05;100.00
74675;BME280;63200;48.810;12.352;2023-08-01T10:35:03;96332.69;;;16.11;100.00
74675;BME280;63200;48.810;12.352;2023-08-01T10:37:42;96326.69;;;16.22;100.00
74675;BME280;63200;48.810;12.352;2023-08-01T10:40:08;96297.75;;;16.21;100.00
74675;BME280;63200;48.810;12.352;2023-08-01T10:42:42;96325.19;;;16.53;100.00
74675;BME280;63200;48.810;12.352;2023-08-01T10:45:22;96328.44;;;16.58;100.00
74675;BME280;63200;48.810;12.352;2023-08-01T10:47:49;96322.09;;;16.70;100.00
74675;BME280;63200;48.810;12.352;2023-08-01T10:50:15;96268.97;;;16.59;100.00
74675;BME280;63200;48.810;12.352;2023-08-01T10:52:41;96319.09;;;17.07;100.00
74675;BME280;63200;48.810;12.352;2023-08-01T10:55:07;96320.78;;;16.96;100.00
74675;BME280;63200;48.810;12.352;2023-08-01T10:57:35;96274.97;;;16.80;100.00
74675;BME280;63200;48.810;12.352;2023-08-01T11:00:02;96305.56;;;17.14;100.00
74675;BME280;63200;48.810;12.352;2023-08-01T11:02:30;96279.16;;;16.90;100.00
74675;BME280;63200;48.810;12.352;2023-08-01T11:05:06;96288.06;;;17.03;100.00
74675;BME280;63200;48.810;12.352;2023-08-01T11:07:33;96303.31;;;17.36;100.00
74675;BME280;63200;48.810;12.352;2023-08-01T11:10:08;96316.31;;;17.39;100.00
74675;BME280;63200;48.810;12.352;2023-08-01T11:12:39;96310.31;;;17.34;100.00
74675;BME280;63200;48.810;12.352;2023-08-01T11:15:06;96308.84;;;17.56;100.00
74675;BME280;63200;48.810;12.352;2023-08-01T11:17:34;96305.00;;;17.60;100.00
74675;BME280;63200;48.810;12.352;2023-08-01T11:20:07;96293.28;;;17.99;100.00
74675;BME280;63200;48.810;12.352;2023-08-01T11:22:34;96288.56;;;18.19;100.00
74675;BME280;63200;48.810;12.352;2023-08-01T11:24:59;96286.75;;;18.27;100.00
74675;BME280;63200;48.810;12.352;2023-08-01T11:27:25;96280.22;;;18.58;100.00
74675;BME280;63200;48.810;12.352;2023-08-01T11:29:51;96283.97;;;18.93;100.00
74675;BME280;63200;48.810;12.352;2023-08-01T11:32:18;96243.22;;;18.75;100.00
74675;BME280;63200;48.810;12.352;2023-08-01T11:34:45;96279.13;;;18.86;100.00
74675;BME280;63200;48.810;12.352;2023-08-01T11:37:17;96293.41;;;18.92;100.00
74675;BME280;63200;48.810;12.352;2023-08-01T11:39:44;96278.34;;;18.62;100.00
74675;BME280;63200;48.810;12.352;2023-08-01T11:42:15;96278.47;;;18.70;100.00
74675;BME280;63200;48.810;12.352;2023-08-01T11:44:41;96285.22;;;18.76;100.00
74675;BME280;63200;48.810;12.352;2023-08-01T11:47:16;96284.41;;;18.48;100.00
74675;BME280;63200;48.810;12.352;2023-08-01T11:49:49;96275.81;;;18.77;100.00
74675;BME280;63200;48.810;12.352;2023-08-01T11:52:27;96279.44;;;18.81;100.00
74675;BME280;63200;48.810;12.352;2023-08-01T11:54:54;96289.16;;;18.98;100.00
74675;BME280;63200;48.810;12.352;2023-08-01T11:57:23;96281.88;;;19.09;100.00
74675;BME280;63200;48.810;12.352;2023-08-01T11:59:49;96279.31;;;18.74;100.00
74675;BME280;63200;48.810;12.352;2023-08-01T12:02:28;96293.13;;;18.77;100.00
74675;BME280;63200;48.810;12.352;2023-08-01T12:04:56;96300.13;;;18.52;100.00
74675;BME280;63200;48.810;12.352;2023-08-01T12:07:24;96308.63;;;18.43;100.00
74675;BME280;63200;48.810;12.352;2023-08-01T12:09:57;96295.31;;;18.22;100.00
74675;BME280;63200;48.810;12.352;2023-08-01T12:12:23;96296.09;;;18.22;100.00
74675;BME280;63200;48.810;12.352;2023-08-01T12:14:49;96284.63;;;18.40;100.00
74675;BME280;63200;48.810;12.352;2023-08-01T12:17:14;96296.44;;;18.40;100.00
74675;BME280;63200;48.810;12.352;2023-08-01T12:19:39;96291.91;;;18.09;100.00
74675;BME280;63200;48.810;12.352;2023-08-01T12:22:05;96282.78;;;17.85;100.00
74675;BME280;63200;48.810;12.352;2023-08-01T12:24:30;96283.66;;;17.89;100.00
74675;BME280;63200;48.810;12.352;2023-08-01T12:26:56;96254.03;;;17.59;100.00
74675;BME280;63200;48.810;12.352;2023-08-01T12:29:22;96281.09;;;17.80;100.00
74675;BME280;63200;48.810;12.352;2023-08-01T12:31:48;96280.91;;;17.70;100.00
74675;BME280;63200;48.810;12.352;2023-08-01T12:34:14;96289.75;;;17.43;100.00
74675;BME280;63200;48.810;12.352;2023-08-01T12:36:39;96275.00;;;17.32;100.00
74675;BME280;63200;48.810;12.352;2023-08-01T12:39:04;96282.06;;;17.33;100.00
74675;BME280;63200;48.810;12.352;2023-08-01T12:41:35;96273.06;;;17.32;100.00